Time;durP1;ratioP1;P1;durP2;ratioP2;P2;SDS_P1;SDS_P2;PMS_P1;PMS_P2;Temp;Humidity;BMP_temperature;BMP_pressure;BME280_temperature;BME280_humidity;BME280_pressure;Samples;Min_cycle;Max_cycle;Signal;HPM_P1;HPM_P2
2023/02/21 02:14:20;;;;;;;53.63;24.97;;;;;;;;;;5033210;28;20426;-46
2023/02/21 02:16:51;;;;;;;62.97;24.50;;;;;;;;;;5033249;28;20558;-43
2023/02/21 02:19:29;;;;;;;73.57;27.63;;;;;;;;;;5025793;28;20416;-43
2023/02/21 02:22:07;;;;;;;59.27;24.60;;;;;;;;;;5033570;28;20444;-43
2023/02/21 02:24:56;;;;;;;54.33;25.27;;;;;;;;;;5033414;28;20446;-46
2023/02/21 02:27:30;;;;;;;64.87;26.00;;;;;;;;;;5025933;28;20549;-44
2023/02/21 02:30:23;;;;;;;69.40;27.77;;;;;;;;;;5032952;28;20424;-45
2023/02/21 02:33:07;;;;;;;69.33;28.80;;;;;;;;;;5017385;28;20417;-44
2023/02/21 02:35:34;;;;;;;66.87;27.27;;;;;;;;;;5033036;28;20543;-44
2023/02/21 02:38:10;;;;;;;62.07;26.97;;;;;;;;;;5032597;28;20864;-46
2023/02/21 02:40:42;;;;;;;68.43;27.30;;;;;;;;;;5033327;28;20472;-43
2023/02/21 02:43:27;;;;;;;59.33;24.97;;;;;;;;;;5032964;28;20416;-44
2023/02/21 02:45:58;;;;;;;61.97;27.87;;;;;;;;;;5032805;28;20458;-43
2023/02/21 02:48:30;;;;;;;61.77;25.60;;;;;;;;;;5032294;28;20424;-44
2023/02/21 02:50:58;;;;;;;67.43;27.60;;;;;;;;;;5033126;28;20423;-44
2023/02/21 02:53:28;;;;;;;71.30;28.37;;;;;;;;;;5033023;28;20442;-44
2023/02/21 02:56:04;;;;;;;67.77;25.17;;;;;;;;;;5032618;28;20962;-45
2023/02/21 02:58:32;;;;;;;74.87;26.97;;;;;;;;;;5032169;28;20808;-44
2023/02/21 03:01:01;;;;;;;63.83;26.60;;;;;;;;;;5032407;28;20422;-43
2023/02/21 03:03:33;;;;;;;71.83;26.17;;;;;;;;;;5032067;28;20405;-44
2023/02/21 03:06:08;;;;;;;66.27;25.90;;;;;;;;;;5032351;28;20416;-44
2023/02/21 03:08:52;;;;;;;69.53;27.10;;;;;;;;;;5031990;28;20629;-43
2023/02/21 03:11:20;;;;;;;71.63;27.73;;;;;;;;;;5025053;28;20409;-44
2023/02/21 03:13:49;;;;;;;73.83;27.97;;;;;;;;;;5032547;28;20462;-44
2023/02/21 03:16:15;;;;;;;70.03;26.70;;;;;;;;;;5031878;28;20515;-46
2023/02/21 03:18:48;;;;;;;74.80;29.80;;;;;;;;;;5031734;28;20420;-43
2023/02/21 03:21:17;;;;;;;63.07;27.27;;;;;;;;;;5032262;28;20441;-45
2023/02/21 03:23:44;;;;;;;60.00;27.37;;;;;;;;;;5032463;28;20428;-44
2023/02/21 03:26:11;;;;;;;67.03;26.90;;;;;;;;;;5032281;28;20764;-44
2023/02/21 03:28:37;;;;;;;67.53;28.10;;;;;;;;;;5031804;28;20427;-43
2023/02/21 03:31:05;;;;;;;67.33;25.80;;;;;;;;;;5032081;28;20425;-44
2023/02/21 03:33:31;;;;;;;56.90;24.40;;;;;;;;;;5032206;28;20405;-45
2023/02/21 03:36:04;;;;;;;62.77;26.20;;;;;;;;;;5031841;28;20457;-46
2023/02/21 03:38:31;;;;;;;59.33;25.97;;;;;;;;;;5031377;28;20493;-44
2023/02/21 03:40:57;;;;;;;62.03;27.97;;;;;;;;;;5031853;28;20421;-45
2023/02/21 03:43:23;;;;;;;66.63;28.23;;;;;;;;;;5032012;28;20826;-45
2023/02/21 03:45:49;;;;;;;61.30;26.70;;;;;;;;;;5031867;28;20415;-47
2023/02/21 03:48:15;;;;;;;53.27;24.60;;;;;;;;;;5038871;22;20503;-43
2023/02/21 03:50:41;;;;;;;62.20;26.00;;;;;;;;;;5029663;28;20417;-44
2023/02/21 03:53:07;;;;;;;56.23;27.30;;;;;;;;;;5030790;28;20420;-44
2023/02/21 03:55:33;;;;;;;61.73;27.20;;;;;;;;;;5031967;28;20983;-44
2023/02/21 03:57:59;;;;;;;60.07;25.60;;;;;;;;;;5030845;28;20436;-43
2023/02/21 04:00:25;;;;;;;59.80;25.87;;;;;;;;;;5031843;28;20500;-44
2023/02/21 04:02:51;;;;;;;66.07;25.13;;;;;;;;;;5033258;28;20414;-44
2023/02/21 04:05:18;;;;;;;58.37;27.67;;;;;;;;;;5031547;28;20896;-46
2023/02/21 04:07:45;;;;;;;54.43;25.30;;;;;;;;;;5031000;28;20916;-43
2023/02/21 04:10:11;;;;;;;61.70;26.37;;;;;;;;;;5029147;28;20408;-45
2023/02/21 04:12:37;;;;;;;59.30;27.90;;;;;;;;;;5026461;28;20419;-44
2023/02/21 04:15:03;;;;;;;58.80;26.07;;;;;;;;;;5030664;28;20521;-43
2023/02/21 04:17:29;;;;;;;56.00;25.80;;;;;;;;;;5030889;28;20427;-44
2023/02/21 04:19:55;;;;;;;58.90;27.93;;;;;;;;;;5031339;28;20779;-44
2023/02/21 04:22:21;;;;;;;67.70;26.43;;;;;;;;;;5031505;28;20503;-44
2023/02/21 04:24:47;;;;;;;57.93;25.67;;;;;;;;;;5031548;28;20412;-44
2023/02/21 04:27:13;;;;;;;67.53;26.90;;;;;;;;;;5029969;28;20428;-44
2023/02/21 04:29:39;;;;;;;67.17;27.60;;;;;;;;;;5031738;28;20479;-44
2023/02/21 04:32:05;;;;;;;59.33;26.83;;;;;;;;;;5031300;28;20492;-44
2023/02/21 04:34:32;;;;;;;54.40;25.67;;;;;;;;;;5031297;28;20888;-44
2023/02/21 04:36:58;;;;;;;60.13;25.90;;;;;;;;;;5030932;28;20551;-46
2023/02/21 04:39:24;;;;;;;58.20;26.07;;;;;;;;;;5030961;28;20432;-44
2023/02/21 04:41:50;;;;;;;66.87;26.40;;;;;;;;;;5030567;28;20444;-44
2023/02/21 04:44:17;;;;;;;65.57;29.37;;;;;;;;;;5029090;28;20469;-45
2023/02/21 04:46:43;;;;;;;72.90;28.10;;;;;;;;;;5031026;28;20436;-43
2023/02/21 04:49:10;;;;;;;62.40;28.23;;;;;;;;;;5030463;28;20462;-44
2023/02/21 04:51:36;;;;;;;72.10;26.97;;;;;;;;;;5031228;28;20407;-44
2023/02/21 04:54:02;;;;;;;63.13;28.03;;;;;;;;;;5031186;28;20413;-44
2023/02/21 04:56:29;;;;;;;62.07;30.00;;;;;;;;;;5030239;28;21018;-44
2023/02/21 04:58:55;;;;;;;62.43;27.33;;;;;;;;;;5030858;28;20408;-44
2023/02/21 05:01:21;;;;;;;63.67;27.30;;;;;;;;;;5031013;28;21007;-44
2023/02/21 05:03:48;;;;;;;61.80;27.00;;;;;;;;;;5031136;28;20417;-44
2023/02/21 05:06:20;;;;;;;81.77;30.50;;;;;;;;;;5030925;28;20442;-44
2023/02/21 05:08:46;;;;;;;67.97;29.40;;;;;;;;;;5029950;28;20978;-44
2023/02/21 05:11:13;;;;;;;73.70;27.57;;;;;;;;;;5030836;28;20550;-44
2023/02/21 05:13:39;;;;;;;74.83;27.77;;;;;;;;;;5031126;28;20917;-43
2023/02/21 05:16:05;;;;;;;62.20;26.70;;;;;;;;;;5030806;28;20459;-44
2023/02/21 05:18:33;;;;;;;67.90;29.90;;;;;;;;;;5030172;28;20439;-44
2023/02/21 05:20:59;;;;;;;77.60;27.87;;;;;;;;;;5030996;28;20768;-44
2023/02/21 05:23:35;;;;;;;76.23;31.00;;;;;;;;;;5030346;28;20408;-44
2023/02/21 05:26:01;;;;;;;78.67;32.80;;;;;;;;;;5032890;28;20927;-44
2023/02/21 05:28:28;;;;;;;73.27;29.97;;;;;;;;;;5033601;28;20425;-44
2023/02/21 05:30:54;;;;;;;76.67;28.90;;;;;;;;;;5034465;28;20412;-44
2023/02/21 05:33:20;;;;;;;72.47;28.13;;;;;;;;;;5034370;28;20466;-44
2023/02/21 05:35:47;;;;;;;74.80;30.93;;;;;;;;;;5034318;28;20467;-44
2023/02/21 05:38:14;;;;;;;70.17;29.87;;;;;;;;;;5032861;28;20523;-44
2023/02/21 05:40:40;;;;;;;77.40;29.37;;;;;;;;;;5034357;28;20971;-44
2023/02/21 05:43:06;;;;;;;75.30;27.00;;;;;;;;;;5030242;28;20509;-45
2023/02/21 05:45:32;;;;;;;78.73;30.03;;;;;;;;;;5034263;28;20427;-43
2023/02/21 05:48:01;;;;;;;82.50;31.67;;;;;;;;;;5048324;28;20460;-45
2023/02/21 05:50:27;;;;;;;68.60;28.43;;;;;;;;;;5034183;28;20428;-44
2023/02/21 05:52:53;;;;;;;84.03;28.67;;;;;;;;;;5033592;28;20422;-44
2023/02/21 05:55:19;;;;;;;74.53;30.40;;;;;;;;;;5033595;28;20464;-46
2023/02/21 05:57:45;;;;;;;73.03;30.20;;;;;;;;;;5032993;28;20455;-47
2023/02/21 06:00:24;;;;;;;77.80;31.00;;;;;;;;;;5034079;28;20655;-44
2023/02/21 06:02:51;;;;;;;85.73;31.17;;;;;;;;;;5033871;28;20425;-45
2023/02/21 06:05:20;;;;;;;66.80;28.33;;;;;;;;;;5033889;28;20444;-44
2023/02/21 06:07:46;;;;;;;80.93;34.47;;;;;;;;;;5032876;28;20464;-44
2023/02/21 06:10:14;;;;;;;80.77;31.77;;;;;;;;;;5033559;28;20420;-44
2023/02/21 06:12:40;;;;;;;87.40;32.40;;;;;;;;;;5032287;28;21054;-47
2023/02/21 06:15:06;;;;;;;83.90;31.43;;;;;;;;;;5033743;28;20567;-44
2023/02/21 06:17:32;;;;;;;89.60;32.30;;;;;;;;;;5032620;28;20487;-44
2023/02/21 06:19:59;;;;;;;78.33;32.00;;;;;;;;;;5032266;28;20503;-45
2023/02/21 06:22:24;;;;;;;76.83;31.73;;;;;;;;;;5033481;28;20465;-44
2023/02/21 06:24:50;;;;;;;89.07;33.43;;;;;;;;;;5033307;28;20499;-46
2023/02/21 06:27:16;;;;;;;70.93;30.87;;;;;;;;;;5031417;28;20912;-47
2023/02/21 06:29:43;;;;;;;73.43;28.67;;;;;;;;;;5033610;28;20409;-47
2023/02/21 06:32:09;;;;;;;78.97;31.80;;;;;;;;;;5033668;28;20424;-44
2023/02/21 06:34:35;;;;;;;80.13;29.40;;;;;;;;;;5027526;28;20812;-44
2023/02/21 06:37:02;;;;;;;83.20;32.43;;;;;;;;;;5032844;28;20491;-43
2023/02/21 06:39:28;;;;;;;81.63;32.80;;;;;;;;;;5031501;28;20434;-44
2023/02/21 06:41:54;;;;;;;84.23;31.70;;;;;;;;;;5030582;28;20417;-44
2023/02/21 06:44:20;;;;;;;82.33;31.97;;;;;;;;;;5029025;28;20763;-44
2023/02/21 06:46:49;;;;;;;74.47;29.47;;;;;;;;;;5032351;28;20481;-44
2023/02/21 06:49:15;;;;;;;77.23;31.23;;;;;;;;;;5031735;28;20421;-44
2023/02/21 06:51:41;;;;;;;86.53;32.33;;;;;;;;;;5032336;28;20416;-45
2023/02/21 06:54:08;;;;;;;88.47;31.47;;;;;;;;;;5030255;28;20967;-43
2023/02/21 06:56:34;;;;;;;80.87;30.90;;;;;;;;;;5032220;28;20954;-44
2023/02/21 06:59:00;;;;;;;79.07;30.90;;;;;;;;;;5031660;28;20408;-44
2023/02/21 07:01:26;;;;;;;82.83;29.97;;;;;;;;;;5032117;28;20414;-44
2023/02/21 07:03:53;;;;;;;81.60;30.57;;;;;;;;;;5032142;28;20415;-44
2023/02/21 07:06:19;;;;;;;76.37;30.63;;;;;;;;;;5031932;28;20415;-43
2023/02/21 07:08:45;;;;;;;80.87;30.43;;;;;;;;;;5029805;28;20794;-44
2023/02/21 07:11:11;;;;;;;81.60;32.30;;;;;;;;;;5031961;28;20409;-43
2023/02/21 07:13:37;;;;;;;92.70;33.17;;;;;;;;;;5032252;28;20419;-44
2023/02/21 07:16:04;;;;;;;84.00;30.53;;;;;;;;;;5031902;28;20610;-44
2023/02/21 07:18:30;;;;;;;84.90;30.70;;;;;;;;;;5031322;28;20955;-43
2023/02/21 07:20:56;;;;;;;75.00;30.47;;;;;;;;;;5032415;28;20416;-44
2023/02/21 07:23:22;;;;;;;83.17;30.17;;;;;;;;;;5031218;28;20440;-44
2023/02/21 07:25:47;;;;;;;80.83;32.03;;;;;;;;;;5032505;28;20505;-44
2023/02/21 07:28:14;;;;;;;76.50;30.13;;;;;;;;;;5031429;28;20881;-45
2023/02/21 07:30:39;;;;;;;76.33;31.03;;;;;;;;;;5027295;28;20905;-44
2023/02/21 07:33:05;;;;;;;80.20;31.30;;;;;;;;;;5031043;28;20492;-45
2023/02/21 07:35:31;;;;;;;85.07;31.20;;;;;;;;;;5032106;28;20863;-47
2023/02/21 07:37:57;;;;;;;81.10;31.60;;;;;;;;;;5030031;28;20735;-43
2023/02/21 07:40:23;;;;;;;87.47;31.20;;;;;;;;;;5032039;28;20470;-43
2023/02/21 07:42:49;;;;;;;81.00;30.80;;;;;;;;;;5032013;28;20899;-44
2023/02/21 07:45:16;;;;;;;90.20;33.80;;;;;;;;;;5031934;28;20416;-44
2023/02/21 07:47:42;;;;;;;87.30;31.83;;;;;;;;;;5030289;28;20469;-44
2023/02/21 07:50:09;;;;;;;82.57;29.47;;;;;;;;;;5030726;28;20948;-44
2023/02/21 07:52:35;;;;;;;82.20;33.00;;;;;;;;;;5031769;28;20501;-44
2023/02/21 07:55:01;;;;;;;83.43;32.37;;;;;;;;;;5031645;28;20907;-45
2023/02/21 07:57:27;;;;;;;84.97;32.47;;;;;;;;;;5031123;28;20460;-45
2023/02/21 07:59:53;;;;;;;96.20;35.17;;;;;;;;;;5025733;28;20473;-44
2023/02/21 08:02:20;;;;;;;83.90;32.20;;;;;;;;;;5031759;28;20402;-43
2023/02/21 08:04:50;;;;;;;86.57;31.10;;;;;;;;;;5031709;28;20535;-44
2023/02/21 08:07:15;;;;;;;74.40;29.70;;;;;;;;;;5031267;28;20437;-43
2023/02/21 08:09:41;;;;;;;80.53;32.70;;;;;;;;;;5027303;28;20448;-44
2023/02/21 08:12:08;;;;;;;82.33;29.20;;;;;;;;;;5029251;28;20444;-43
2023/02/21 08:14:33;;;;;;;78.20;31.40;;;;;;;;;;5031504;28;20421;-44
2023/02/21 08:16:59;;;;;;;81.07;33.50;;;;;;;;;;5025540;28;21046;-43
2023/02/21 08:19:25;;;;;;;71.73;29.13;;;;;;;;;;5030640;28;20464;-44
2023/02/21 08:21:51;;;;;;;79.67;29.60;;;;;;;;;;5030494;28;20401;-44
2023/02/21 08:24:17;;;;;;;67.13;26.50;;;;;;;;;;5031192;28;20404;-44
2023/02/21 08:26:44;;;;;;;78.03;30.77;;;;;;;;;;5031430;28;20923;-44
2023/02/21 08:29:10;;;;;;;79.07;29.53;;;;;;;;;;5026767;28;20507;-44
2023/02/21 08:31:37;;;;;;;87.83;30.23;;;;;;;;;;5031484;28;20425;-43
2023/02/21 08:34:03;;;;;;;75.83;27.07;;;;;;;;;;5031328;28;20421;-44
2023/02/21 08:36:37;;;;;;;87.93;28.87;;;;;;;;;;5030473;28;20465;-43
2023/02/21 08:39:03;;;;;;;80.60;27.50;;;;;;;;;;5030839;28;20643;-43
2023/02/21 08:41:37;;;;;;;80.63;25.70;;;;;;;;;;5031328;28;20821;-43
2023/02/21 08:44:03;;;;;;;78.67;27.17;;;;;;;;;;5031258;28;20401;-43
2023/02/21 08:46:29;;;;;;;75.70;27.73;;;;;;;;;;5031114;28;20407;-44
2023/02/21 08:48:55;;;;;;;73.40;28.23;;;;;;;;;;5030395;28;20923;-44
2023/02/21 08:51:28;;;;;;;71.63;27.63;;;;;;;;;;5030379;28;20818;-43
2023/02/21 08:53:54;;;;;;;79.13;28.30;;;;;;;;;;5031120;28;20936;-44
2023/02/21 08:56:20;;;;;;;74.13;26.13;;;;;;;;;;5031286;28;20486;-43
2023/02/21 08:58:46;;;;;;;76.07;27.03;;;;;;;;;;5030616;28;20792;-44
2023/02/21 09:01:12;;;;;;;74.33;27.47;;;;;;;;;;5033515;28;20406;-43
2023/02/21 09:03:39;;;;;;;77.43;26.10;;;;;;;;;;5042924;28;20415;-45
2023/02/21 09:06:05;;;;;;;62.63;26.53;;;;;;;;;;5035675;28;20428;-45
2023/02/21 09:11:07;;;;;;;86.10;27.20;;;;;;;;;;5460331;22;20258;-42
2023/02/21 09:13:33;;;;;;;71.87;26.10;;;;;;;;;;4991269;28;20513;-44
2023/02/21 09:16:00;;;;;;;65.57;25.07;;;;;;;;;;4989720;28;20487;-44
2023/02/21 09:18:27;;;;;;;74.70;23.87;;;;;;;;;;4995981;28;20422;-45
2023/02/21 09:20:56;;;;;;;81.77;26.67;;;;;;;;;;4984292;28;20988;-45
2023/02/21 09:23:22;;;;;;;59.77;25.10;;;;;;;;;;4974010;28;20907;-44
2023/02/21 09:25:48;;;;;;;74.63;24.20;;;;;;;;;;4975833;28;20946;-45
2023/02/21 09:28:14;;;;;;;73.30;24.80;;;;;;;;;;4975854;28;20474;-44
2023/02/21 09:30:40;;;;;;;68.47;24.37;;;;;;;;;;4975209;28;20806;-44
2023/02/21 09:33:06;;;;;;;64.00;23.97;;;;;;;;;;4975801;28;20427;-45
2023/02/21 09:35:32;;;;;;;72.53;23.40;;;;;;;;;;4975273;28;20470;-45
2023/02/21 09:37:59;;;;;;;69.50;23.23;;;;;;;;;;4975604;28;20415;-45
2023/02/21 09:40:44;;;;;;;66.17;21.47;;;;;;;;;;4982141;28;20434;-45
2023/02/21 09:43:15;;;;;;;73.10;25.80;;;;;;;;;;4956006;28;20411;-44
2023/02/21 09:45:42;;;;;;;63.60;23.60;;;;;;;;;;4975096;28;20492;-45
2023/02/21 09:48:12;;;;;;;61.13;21.23;;;;;;;;;;4975595;28;20422;-45
2023/02/21 09:50:40;;;;;;;52.00;20.30;;;;;;;;;;4975086;28;20439;-44
2023/02/21 09:53:07;;;;;;;63.63;22.10;;;;;;;;;;4975282;28;20438;-44
2023/02/21 09:55:35;;;;;;;59.50;23.30;;;;;;;;;;4975018;28;20460;-44
2023/02/21 09:58:02;;;;;;;55.50;21.70;;;;;;;;;;4975125;28;20447;-44
2023/02/21 10:00:34;;;;;;;58.47;21.83;;;;;;;;;;4975177;28;20439;-44
2023/02/21 10:03:18;;;;;;;57.20;21.80;;;;;;;;;;4975121;28;20505;-44
2023/02/21 10:05:57;;;;;;;49.40;21.73;;;;;;;;;;4983526;28;20411;-44
2023/02/21 10:08:35;;;;;;;61.53;23.30;;;;;;;;;;4975556;28;20408;-42
2023/02/21 10:11:22;;;;;;;58.00;21.80;;;;;;;;;;4974227;28;20443;-42
2023/02/21 10:13:59;;;;;;;47.20;19.77;;;;;;;;;;4974306;28;20444;-43
2023/02/21 10:16:31;;;;;;;54.47;21.23;;;;;;;;;;4974897;28;20531;-43
2023/02/21 10:19:18;;;;;;;49.90;19.87;;;;;;;;;;4974734;28;20427;-42
2023/02/21 10:21:46;;;;;;;54.27;21.77;;;;;;;;;;4974618;28;20429;-43
2023/02/21 10:24:20;;;;;;;47.13;20.00;;;;;;;;;;4974656;28;20754;-45
2023/02/21 10:27:06;;;;;;;41.13;18.23;;;;;;;;;;4974936;28;20470;-43
2023/02/21 10:29:51;;;;;;;46.30;19.80;;;;;;;;;;4974454;28;20867;-43
2023/02/21 10:32:17;;;;;;;50.70;19.80;;;;;;;;;;4974595;28;20416;-42
2023/02/21 10:34:44;;;;;;;44.63;18.40;;;;;;;;;;4974397;28;20417;-42
2023/02/21 10:37:29;;;;;;;42.03;20.40;;;;;;;;;;4974427;28;20562;-43
2023/02/21 10:40:04;;;;;;;42.30;18.67;;;;;;;;;;4974114;28;20433;-43
2023/02/21 10:42:35;;;;;;;39.93;18.57;;;;;;;;;;4974275;28;20447;-44
2023/02/21 10:45:02;;;;;;;34.27;16.63;;;;;;;;;;4974789;28;20400;-44
2023/02/21 10:47:36;;;;;;;36.20;16.60;;;;;;;;;;4974706;28;20422;-42
2023/02/21 10:50:05;;;;;;;33.50;16.50;;;;;;;;;;4973939;28;20482;-42
2023/02/21 10:52:36;;;;;;;32.83;15.50;;;;;;;;;;4974162;28;20420;-43
2023/02/21 10:55:15;;;;;;;29.70;15.40;;;;;;;;;;4974278;28;20412;-43
2023/02/21 10:57:43;;;;;;;31.90;15.33;;;;;;;;;;4973984;28;20937;-42
2023/02/21 11:00:09;;;;;;;44.93;16.40;;;;;;;;;;4973795;28;20433;-42
2023/02/21 11:02:39;;;;;;;29.77;13.57;;;;;;;;;;4974181;28;20434;-42
2023/02/21 11:05:16;;;;;;;31.23;14.53;;;;;;;;;;4977331;28;20459;-44
2023/02/21 11:07:54;;;;;;;38.00;16.63;;;;;;;;;;4990490;28;20417;-44
2023/02/21 11:10:46;;;;;;;29.10;15.60;;;;;;;;;;4973113;28;20919;-45
2023/02/21 11:13:14;;;;;;;31.63;14.70;;;;;;;;;;4973314;28;20467;-44
2023/02/21 11:15:41;;;;;;;35.33;15.40;;;;;;;;;;4973820;28;20459;-44
2023/02/21 11:18:23;;;;;;;28.87;13.80;;;;;;;;;;4973425;28;20416;-45
2023/02/21 11:20:49;;;;;;;28.47;14.70;;;;;;;;;;4973541;28;20746;-45
2023/02/21 11:23:20;;;;;;;34.90;14.57;;;;;;;;;;4972960;28;20459;-44
2023/02/21 11:25:46;;;;;;;28.73;15.10;;;;;;;;;;4973625;28;20429;-44
2023/02/21 11:28:12;;;;;;;33.87;15.37;;;;;;;;;;4973512;28;20455;-44
2023/02/21 11:30:39;;;;;;;37.47;15.07;;;;;;;;;;4972975;28;20436;-45
2023/02/21 11:33:07;;;;;;;32.57;15.30;;;;;;;;;;4973666;28;20424;-45
2023/02/21 11:35:35;;;;;;;33.60;17.40;;;;;;;;;;4973537;28;20824;-44
2023/02/21 11:38:01;;;;;;;28.93;14.40;;;;;;;;;;4973533;28;20927;-44
2023/02/21 11:40:31;;;;;;;29.50;15.63;;;;;;;;;;4972913;28;20437;-44
2023/02/21 11:43:20;;;;;;;29.73;14.40;;;;;;;;;;4973427;28;20445;-44
2023/02/21 11:46:01;;;;;;;27.33;13.63;;;;;;;;;;4972778;28;20515;-44
2023/02/21 11:48:31;;;;;;;29.00;14.70;;;;;;;;;;4973282;28;20799;-45
2023/02/21 11:50:59;;;;;;;29.00;13.37;;;;;;;;;;4972896;28;20446;-44
2023/02/21 11:53:27;;;;;;;27.17;15.37;;;;;;;;;;4973045;28;20417;-45
2023/02/21 11:56:12;;;;;;;25.30;13.33;;;;;;;;;;4972966;28;20475;-44
2023/02/21 11:58:59;;;;;;;25.20;13.20;;;;;;;;;;4973236;28;20417;-44
2023/02/21 12:01:34;;;;;;;24.07;15.40;;;;;;;;;;4972723;28;20435;-45
2023/02/21 12:04:11;;;;;;;33.33;14.03;;;;;;;;;;4973454;28;20525;-44
2023/02/21 12:06:44;;;;;;;23.43;12.57;;;;;;;;;;4984887;28;20463;-45
2023/02/21 12:09:13;;;;;;;26.40;13.10;;;;;;;;;;4973237;28;20418;-44
2023/02/21 12:11:39;;;;;;;24.53;12.90;;;;;;;;;;4972423;28;20431;-44
2023/02/21 12:14:23;;;;;;;26.00;14.20;;;;;;;;;;4972612;28;20428;-44
2023/02/21 12:17:12;;;;;;;27.57;14.30;;;;;;;;;;4972818;28;20499;-44
2023/02/21 12:19:44;;;;;;;24.07;13.73;;;;;;;;;;4972047;28;20425;-44
2023/02/21 12:22:13;;;;;;;29.50;14.83;;;;;;;;;;4972746;28;20449;-45
2023/02/21 12:24:42;;;;;;;27.63;14.33;;;;;;;;;;4972797;28;20501;-47
2023/02/21 12:27:27;;;;;;;26.60;14.97;;;;;;;;;;4972979;28;20428;-46
2023/02/21 12:29:56;;;;;;;26.80;14.90;;;;;;;;;;4967058;28;20987;-46
2023/02/21 12:32:54;;;;;;;29.90;17.60;;;;;;;;;;4973105;28;20420;-47
2023/02/21 12:35:30;;;;;;;29.47;15.90;;;;;;;;;;4953631;28;20495;-48
2023/02/21 12:38:16;;;;;;;27.70;15.23;;;;;;;;;;4977237;28;20448;-49
2023/02/21 12:41:01;;;;;;;28.67;15.77;;;;;;;;;;4949661;28;20459;-47
2023/02/21 12:43:35;;;;;;;27.53;16.27;;;;;;;;;;4976822;28;20412;-48
2023/02/21 12:46:05;;;;;;;28.80;16.67;;;;;;;;;;4977206;28;20415;-48
2023/02/21 12:48:52;;;;;;;30.27;17.00;;;;;;;;;;4977108;28;20415;-48
2023/02/21 12:51:20;;;;;;;29.40;17.97;;;;;;;;;;4975088;28;20440;-47
2023/02/21 12:53:55;;;;;;;32.67;17.50;;;;;;;;;;4977432;28;20464;-46
2023/02/21 12:56:30;;;;;;;31.87;16.67;;;;;;;;;;4987191;28;20470;-48
2023/02/21 12:59:01;;;;;;;32.80;17.87;;;;;;;;;;4977239;28;20408;-47
2023/02/21 13:01:30;;;;;;;33.10;17.20;;;;;;;;;;4976475;28;20516;-46
2023/02/21 13:03:59;;;;;;;29.13;16.40;;;;;;;;;;4976369;28;20415;-46
2023/02/21 13:06:28;;;;;;;27.90;16.90;;;;;;;;;;4978873;28;20931;-46
2023/02/21 13:09:06;;;;;;;30.60;15.93;;;;;;;;;;4975956;28;20470;-46
2023/02/21 13:11:51;;;;;;;35.23;17.67;;;;;;;;;;4975815;28;20472;-45
2023/02/21 13:14:18;;;;;;;29.87;16.63;;;;;;;;;;4976114;28;20429;-46
2023/02/21 13:16:45;;;;;;;32.53;18.37;;;;;;;;;;4976150;28;20506;-47
2023/02/21 13:19:12;;;;;;;33.73;18.23;;;;;;;;;;4975225;28;20897;-45
2023/02/21 13:21:55;;;;;;;34.97;18.83;;;;;;;;;;4975365;28;20483;-47
2023/02/21 13:24:29;;;;;;;34.53;19.50;;;;;;;;;;4975086;28;20776;-48
2023/02/21 13:27:10;;;;;;;34.97;18.50;;;;;;;;;;4975884;28;20420;-46
2023/02/21 13:29:37;;;;;;;38.57;20.17;;;;;;;;;;4975693;28;20420;-46
2023/02/21 13:32:21;;;;;;;29.27;17.40;;;;;;;;;;4976000;28;20512;-48
2023/02/21 13:34:52;;;;;;;38.50;18.90;;;;;;;;;;4976019;28;20429;-46
2023/02/21 13:37:19;;;;;;;35.00;19.33;;;;;;;;;;4975624;28;20990;-45
2023/02/21 13:39:53;;;;;;;36.13;19.60;;;;;;;;;;4975743;28;20485;-44
2023/02/21 13:42:21;;;;;;;37.00;18.90;;;;;;;;;;4975958;28;20504;-47
2023/02/21 13:44:49;;;;;;;35.87;19.57;;;;;;;;;;4976157;28;20923;-45
2023/02/21 13:47:19;;;;;;;34.00;18.60;;;;;;;;;;4974868;28;20406;-47
2023/02/21 13:49:49;;;;;;;30.20;18.27;;;;;;;;;;4975423;28;20410;-46
2023/02/21 13:52:21;;;;;;;32.53;18.23;;;;;;;;;;4975578;28;20412;-48
2023/02/21 13:55:06;;;;;;;39.50;19.17;;;;;;;;;;4975544;28;20455;-47
2023/02/21 13:57:33;;;;;;;39.20;20.03;;;;;;;;;;4975431;28;20972;-46
2023/02/21 14:00:19;;;;;;;36.30;19.90;;;;;;;;;;4972320;28;20449;-47
2023/02/21 14:03:00;;;;;;;37.53;19.07;;;;;;;;;;4975782;28;20410;-48
2023/02/21 14:05:49;;;;;;;37.83;19.93;;;;;;;;;;4975284;28;20783;-48
2023/02/21 14:08:15;;;;;;;36.83;19.43;;;;;;;;;;4974985;28;20961;-47
2023/02/21 14:11:01;;;;;;;40.30;18.60;;;;;;;;;;4974704;28;20437;-46
2023/02/21 14:13:35;;;;;;;39.23;19.20;;;;;;;;;;4967980;28;20440;-46
2023/02/21 14:16:07;;;;;;;32.37;17.60;;;;;;;;;;4975554;28;20527;-48
2023/02/21 14:18:41;;;;;;;35.77;17.73;;;;;;;;;;4979329;28;20732;-48
2023/02/21 14:21:14;;;;;;;36.67;19.20;;;;;;;;;;4975137;28;20484;-48
2023/02/21 14:24:01;;;;;;;36.27;19.20;;;;;;;;;;4974995;28;20411;-47
2023/02/21 14:26:49;;;;;;;41.80;18.57;;;;;;;;;;4975043;28;20417;-47
2023/02/21 14:29:30;;;;;;;39.73;19.63;;;;;;;;;;4974751;28;20413;-46
2023/02/21 14:32:14;;;;;;;38.40;19.63;;;;;;;;;;4974478;28;20444;-44
2023/02/21 14:34:49;;;;;;;36.00;16.93;;;;;;;;;;4974848;28;20397;-46
2023/02/21 14:37:28;;;;;;;35.20;19.27;;;;;;;;;;4974605;28;20805;-45
2023/02/21 14:39:56;;;;;;;37.83;17.87;;;;;;;;;;4954903;28;20414;-45
2023/02/21 14:42:21;;;;;;;38.17;18.43;;;;;;;;;;4972357;28;20467;-46
2023/02/21 14:44:58;;;;;;;34.97;19.20;;;;;;;;;;4974764;28;20413;-45
2023/02/21 14:47:27;;;;;;;40.03;21.20;;;;;;;;;;4974540;28;20444;-45
2023/02/21 14:49:52;;;;;;;38.70;19.77;;;;;;;;;;4974174;28;20456;-47
2023/02/21 14:52:18;;;;;;;36.03;17.87;;;;;;;;;;4974475;28;20448;-47
2023/02/21 14:55:03;;;;;;;35.23;16.93;;;;;;;;;;4974761;28;20832;-46
2023/02/21 14:57:33;;;;;;;34.30;16.33;;;;;;;;;;4973765;28;20471;-47
2023/02/21 15:00:10;;;;;;;29.10;15.13;;;;;;;;;;4974082;28;20429;-47
2023/02/21 15:02:43;;;;;;;30.63;15.10;;;;;;;;;;4966651;28;20791;-46
2023/02/21 15:05:24;;;;;;;27.53;14.50;;;;;;;;;;4974620;28;20401;-45
2023/02/21 15:07:56;;;;;;;29.53;14.77;;;;;;;;;;4974304;28;20428;-45
2023/02/21 15:10:24;;;;;;;31.50;14.73;;;;;;;;;;4973774;28;20433;-46
2023/02/21 15:12:49;;;;;;;26.80;14.60;;;;;;;;;;4975725;28;20477;-46
2023/02/21 15:15:18;;;;;;;31.33;15.93;;;;;;;;;;4974296;28;20803;-45
2023/02/21 15:17:45;;;;;;;34.83;15.63;;;;;;;;;;4971302;28;20417;-47
2023/02/21 15:20:15;;;;;;;30.30;15.33;;;;;;;;;;4970139;28;20443;-46
2023/02/21 15:22:41;;;;;;;33.40;16.90;;;;;;;;;;4973749;28;20920;-46
2023/02/21 15:25:07;;;;;;;31.20;16.80;;;;;;;;;;4973612;28;20488;-46
2023/02/21 15:27:34;;;;;;;29.67;14.87;;;;;;;;;;4973745;28;20512;-47
2023/02/21 15:30:26;;;;;;;31.90;15.53;;;;;;;;;;4973057;28;20448;-46
2023/02/21 15:32:54;;;;;;;30.57;15.83;;;;;;;;;;4973203;28;20425;-47
2023/02/21 15:35:23;;;;;;;28.13;14.40;;;;;;;;;;4973426;28;20418;-47
2023/02/21 15:37:49;;;;;;;30.67;16.40;;;;;;;;;;4973532;28;20497;-47
2023/02/21 15:40:17;;;;;;;29.80;14.40;;;;;;;;;;4972826;28;20437;-47
2023/02/21 15:42:44;;;;;;;26.13;12.80;;;;;;;;;;4973401;28;20970;-46
2023/02/21 15:45:18;;;;;;;34.20;15.50;;;;;;;;;;4973311;28;20415;-46
2023/02/21 15:47:45;;;;;;;29.83;14.50;;;;;;;;;;4973345;28;20484;-48
2023/02/21 15:50:31;;;;;;;33.57;15.80;;;;;;;;;;4972823;28;20424;-46
2023/02/21 15:53:10;;;;;;;30.57;14.40;;;;;;;;;;4973025;28;20413;-46
2023/02/21 15:55:36;;;;;;;38.30;16.20;;;;;;;;;;4973287;28;20468;-47
2023/02/21 15:58:02;;;;;;;35.50;15.20;;;;;;;;;;4973134;28;20421;-46
2023/02/21 16:00:30;;;;;;;32.20;15.73;;;;;;;;;;4971127;28;20448;-46
2023/02/21 16:03:16;;;;;;;31.57;15.30;;;;;;;;;;4982833;28;20400;-45
2023/02/21 16:05:42;;;;;;;37.23;15.53;;;;;;;;;;4973698;28;20463;-45
2023/02/21 16:08:12;;;;;;;34.50;16.63;;;;;;;;;;4976178;28;20913;-47
2023/02/21 16:10:40;;;;;;;36.10;15.87;;;;;;;;;;4964532;28;20450;-46
2023/02/21 16:13:06;;;;;;;34.77;17.10;;;;;;;;;;4972701;28;20432;-47
2023/02/21 16:15:36;;;;;;;36.53;16.23;;;;;;;;;;4973199;28;20455;-47
2023/02/21 16:18:04;;;;;;;40.93;17.10;;;;;;;;;;4973880;28;20416;-47
2023/02/21 16:20:32;;;;;;;35.23;17.10;;;;;;;;;;4973374;28;20441;-48
2023/02/21 16:23:16;;;;;;;33.50;16.97;;;;;;;;;;4973303;28;20413;-46
2023/02/21 16:25:55;;;;;;;35.80;17.17;;;;;;;;;;4968265;28;20491;-47
2023/02/21 16:28:21;;;;;;;39.20;16.93;;;;;;;;;;4972849;28;20491;-46
2023/02/21 16:30:47;;;;;;;47.90;20.13;;;;;;;;;;4972628;28;20792;-48
2023/02/21 16:33:13;;;;;;;41.07;20.60;;;;;;;;;;4973475;28;20405;-46
2023/02/21 16:35:39;;;;;;;38.17;17.67;;;;;;;;;;4973064;28;20551;-46
2023/02/21 16:38:08;;;;;;;42.80;18.30;;;;;;;;;;4972997;28;21037;-47
2023/02/21 16:40:34;;;;;;;41.47;20.43;;;;;;;;;;4986897;28;20424;-47
2023/02/21 16:43:01;;;;;;;37.73;17.80;;;;;;;;;;4973889;28;20785;-47
2023/02/21 16:45:27;;;;;;;40.27;19.13;;;;;;;;;;4972804;28;20431;-45
2023/02/21 16:47:57;;;;;;;54.43;19.43;;;;;;;;;;4972799;28;20416;-45
2023/02/21 16:50:37;;;;;;;50.57;21.33;;;;;;;;;;4972271;28;20437;-47